Time;durP1;ratioP1;P1;durP2;ratioP2;P2;SDS_P1;SDS_P2;PMS_P1;PMS_P2;Temp;Humidity;BMP_temperature;BMP_pressure;BME280_temperature;BME280_humidity;BME280_pressure;Samples;Min_cycle;Max_cycle;Signal;HPM_P1;HPM_P2
2022/06/04 00:01:44;;;;;;;4.93;2.80;;;;;;;16.32;52.71;101605.25;5013280;28;20057;-93
2022/06/04 00:04:12;;;;;;;2.72;2.47;;;;;;;16.25;53.00;101609.28;5010454;28;20399;-91
2022/06/04 00:06:37;;;;;;;4.07;2.65;;;;;;;16.19;52.99;101607.84;5008793;28;20026;-92
2022/06/04 00:09:05;;;;;;;3.70;2.83;;;;;;;16.06;53.01;101588.09;5010084;28;20395;-93
2022/06/04 00:16:59;;;;;;;;;;;;;;;15.97;52.55;101607.41;5002988;28;20037;-90
2022/06/04 00:19:25;;;;;;;4.15;2.45;;;;;;;15.74;53.21;101593.59;5009880;28;19913;-91
2022/06/04 00:21:51;;;;;;;4.97;2.78;;;;;;;15.71;53.40;101592.91;5009696;28;20103;-91
2022/06/04 00:24:16;;;;;;;3.80;2.60;;;;;;;15.69;53.33;101601.06;5010459;28;20181;-92
2022/06/04 00:26:41;;;;;;;2.90;2.20;;;;;;;15.59;53.05;101586.44;5009008;28;20068;-91
2022/06/04 00:29:09;;;;;;;3.45;2.50;;;;;;;15.61;53.38;101608.69;5010070;28;20105;-91
2022/06/04 00:31:36;;;;;;;3.15;2.13;;;;;;;15.60;52.87;101612.31;5010109;28;20385;-91
2022/06/04 00:34:03;;;;;;;3.10;2.50;;;;;;;15.60;52.87;101618.56;5010446;28;20033;-93
2022/06/04 00:36:28;;;;;;;5.03;2.53;;;;;;;15.61;52.56;101617.59;5009191;28;20500;-92
2022/06/04 00:38:54;;;;;;;6.55;2.75;;;;;;;15.61;52.40;101608.69;5010136;28;20030;-93
2022/06/04 00:41:27;;;;;;;4.03;2.55;;;;;;;15.59;52.57;101589.09;5009564;28;20049;-94
2022/06/04 00:43:57;;;;;;;3.40;2.47;;;;;;;15.57;52.38;101577.63;5011540;28;20037;-92
2022/06/04 00:46:40;;;;;;;3.63;2.40;;;;;;;15.59;52.69;101568.53;5010181;28;20065;-92
2022/06/04 00:49:20;;;;;;;3.35;2.40;;;;;;;15.56;52.48;101592.84;5009597;28;20090;-92
2022/06/04 00:51:51;;;;;;;4.65;2.70;;;;;;;15.48;53.02;101605.88;5009014;28;20431;-92
2022/06/04 00:54:17;;;;;;;3.70;2.70;;;;;;;15.42;53.14;101609.78;5009232;28;20034;-92
2022/06/04 00:56:56;;;;;;;3.80;2.65;;;;;;;15.44;53.22;101626.63;5006248;28;20042;-91
2022/06/04 00:59:42;;;;;;;2.92;2.20;;;;;;;15.41;52.61;101620.59;5009115;28;20038;-91
2022/06/04 01:02:16;;;;;;;5.47;2.70;;;;;;;15.36;53.23;101634.28;5009218;28;20037;-91
2022/06/04 01:05:05;;;;;;;4.63;2.55;;;;;;;15.33;53.19;101628.22;5009252;28;20030;-93
2022/06/04 01:07:53;;;;;;;5.30;2.63;;;;;;;15.33;53.24;101630.91;5008608;28;20112;-92
2022/06/04 01:10:24;;;;;;;3.00;2.65;;;;;;;15.36;52.88;101639.63;5008702;28;20026;-90
2022/06/04 01:12:54;;;;;;;4.20;2.75;;;;;;;15.27;53.38;101642.84;5003889;28;20110;-91
2022/06/04 01:15:47;;;;;;;3.38;2.75;;;;;;;15.26;52.80;101646.50;4994126;28;20017;-91
2022/06/04 01:18:19;;;;;;;5.13;2.50;;;;;;;15.19;52.96;101642.44;5009206;28;20061;-90
2022/06/04 01:20:53;;;;;;;3.08;2.35;;;;;;;15.11;53.20;101650.06;5008858;28;20030;-92
2022/06/04 01:23:49;;;;;;;4.43;2.67;;;;;;;15.09;53.19;101652.84;5009105;28;20033;-92
2022/06/04 01:26:29;;;;;;;5.38;2.70;;;;;;;15.05;53.15;101650.38;5007846;28;20430;-91
2022/06/04 01:29:00;;;;;;;3.30;2.38;;;;;;;15.07;53.50;101657.41;5011159;28;20030;-92
2022/06/04 01:32:00;;;;;;;5.13;2.72;;;;;;;15.05;53.22;101650.38;5013732;28;20518;-93
2022/06/04 01:34:34;;;;;;;4.38;2.72;;;;;;;15.02;53.25;101646.06;5008881;28;20053;-91
2022/06/04 01:37:06;;;;;;;4.38;2.80;;;;;;;14.95;53.50;101653.59;5006722;28;20033;-91
2022/06/04 01:42:24;;;;;;;6.40;2.63;;;;;;;14.92;53.71;101669.88;5008855;28;20175;-92
2022/06/04 01:44:51;;;;;;;2.63;2.38;;;;;;;14.80;53.73;101664.31;5008251;28;20026;-91
2022/06/04 01:47:19;;;;;;;3.03;2.55;;;;;;;14.82;53.63;101679.34;5008031;28;20033;-91
2022/06/04 01:49:54;;;;;;;3.70;2.60;;;;;;;14.81;53.82;101676.78;5008984;28;20030;-92
2022/06/04 01:52:25;;;;;;;2.92;2.60;;;;;;;14.76;53.82;101681.53;5009495;28;20495;-92
2022/06/04 01:55:16;;;;;;;4.53;2.72;;;;;;;14.75;54.14;101679.78;5007774;28;20387;-91
2022/06/04 01:57:48;;;;;;;3.53;2.83;;;;;;;14.72;54.47;101677.28;5000776;28;20124;-92
2022/06/04 02:00:19;;;;;;;3.67;2.85;;;;;;;14.66;53.94;101678.47;5009532;28;20030;-91
2022/06/04 02:03:04;;;;;;;3.05;2.53;;;;;;;14.65;54.10;101690.13;5012361;28;20050;-92
2022/06/04 02:05:53;;;;;;;3.83;2.60;;;;;;;14.62;53.93;101688.47;5012094;28;20025;-92
2022/06/04 02:08:26;;;;;;;2.78;2.45;;;;;;;14.60;54.29;101686.84;5013539;28;20041;-92
2022/06/04 02:11:03;;;;;;;3.78;2.85;;;;;;;14.52;54.61;101676.53;5013931;28;20410;-92
2022/06/04 02:13:29;;;;;;;3.85;2.63;;;;;;;14.55;54.94;101686.25;5012630;28;20030;-93
2022/06/04 02:16:06;;;;;;;4.50;2.53;;;;;;;14.52;54.79;101691.75;5010149;28;20034;-91
2022/06/04 02:18:32;;;;;;;4.07;2.83;;;;;;;14.41;54.84;101686.94;5012316;28;20034;-92
2022/06/04 02:20:57;;;;;;;7.03;3.33;;;;;;;14.40;54.88;101679.84;5012078;28;20084;-93
2022/06/04 02:23:22;;;;;;;4.10;2.80;;;;;;;14.38;55.11;101679.03;5011911;28;20040;-93
2022/06/04 02:25:48;;;;;;;6.15;3.10;;;;;;;14.29;55.29;101680.41;5010531;28;20025;-93
2022/06/04 02:28:14;;;;;;;4.00;3.13;;;;;;;14.24;55.42;101677.13;5012414;28;20022;-92
2022/06/04 02:30:54;;;;;;;5.30;3.03;;;;;;;14.27;55.51;101679.63;5012387;28;20108;-92
2022/06/04 02:33:28;;;;;;;4.57;3.17;;;;;;;14.22;55.70;101675.47;5012176;28;20034;-92
2022/06/04 02:36:02;;;;;;;3.97;3.00;;;;;;;14.22;55.64;101664.78;5010848;28;20037;-92
2022/06/04 02:38:34;;;;;;;4.00;3.15;;;;;;;14.19;55.94;101669.31;5012210;28;20026;-90
2022/06/04 02:41:06;;;;;;;4.28;3.10;;;;;;;14.12;56.03;101654.53;5013994;28;20029;-92
2022/06/04 02:44:09;;;;;;;3.78;2.80;;;;;;;14.08;56.20;101649.41;5012529;28;20472;-91
2022/06/04 02:46:45;;;;;;;5.03;3.20;;;;;;;14.04;56.64;101658.56;5007446;28;20045;-92
2022/06/04 02:49:17;;;;;;;4.50;3.38;;;;;;;13.97;56.97;101657.16;5012983;28;20030;-92
2022/06/04 02:51:46;;;;;;;3.45;3.15;;;;;;;13.92;57.51;101646.69;5013200;28;20034;-91
2022/06/04 02:54:21;;;;;;;4.85;3.42;;;;;;;13.83;57.61;101640.00;5013610;28;20383;-92
2022/06/04 02:56:48;;;;;;;3.38;3.08;;;;;;;13.82;58.52;101638.25;5011391;28;20041;-93
2022/06/04 02:59:17;;;;;;;5.75;3.40;;;;;;;13.80;58.67;101634.81;5011675;28;20061;-92
2022/06/04 03:01:44;;;;;;;6.03;3.63;;;;;;;13.70;58.68;101628.19;5011005;28;20561;-92
2022/06/04 03:04:10;;;;;;;4.30;3.65;;;;;;;13.65;58.96;101616.88;5010737;28;20033;-92
2022/06/04 03:06:37;;;;;;;3.92;3.30;;;;;;;13.67;58.71;101628.38;5010650;28;20033;-93
2022/06/04 03:09:05;;;;;;;5.05;3.40;;;;;;;13.58;59.20;101631.50;5011786;28;20034;-92
2022/06/04 03:11:38;;;;;;;4.78;3.88;;;;;;;13.56;59.22;101623.56;5010859;28;20139;-94
2022/06/04 03:14:03;;;;;;;5.10;3.78;;;;;;;13.62;59.33;101614.34;5010241;28;20068;-92
2022/06/04 03:16:37;;;;;;;5.85;3.80;;;;;;;13.64;58.92;101617.81;5011624;28;20308;-94
2022/06/04 03:19:10;;;;;;;7.45;4.18;;;;;;;13.53;59.70;101613.00;5012104;28;20060;-92
2022/06/04 03:21:36;;;;;;;6.20;4.10;;;;;;;13.49;59.65;101619.47;5011365;28;20032;-92
2022/06/04 03:24:02;;;;;;;5.15;4.13;;;;;;;13.55;59.70;101616.47;5010371;28;20507;-91
2022/06/04 03:26:28;;;;;;;7.93;3.70;;;;;;;13.54;59.73;101612.06;5013442;28;20503;-92
2022/06/04 03:28:53;;;;;;;5.85;4.43;;;;;;;13.55;60.03;101612.94;5011799;28;20061;-92
2022/06/04 03:31:18;;;;;;;4.90;4.10;;;;;;;13.48;59.99;101606.16;5011599;28;20042;-92
2022/06/04 03:33:43;;;;;;;6.38;4.38;;;;;;;13.47;60.36;101616.00;5010032;28;20037;-92
2022/06/04 03:36:10;;;;;;;6.28;4.30;;;;;;;13.43;60.55;101617.09;5010396;28;20030;-92
2022/06/04 03:38:35;;;;;;;7.57;4.07;;;;;;;13.40;60.97;101615.44;5010676;28;20420;-92
2022/06/04 03:41:01;;;;;;;6.35;4.88;;;;;;;13.36;61.18;101624.56;5012535;28;20137;-93
2022/06/04 03:43:26;;;;;;;8.23;4.72;;;;;;;13.24;61.76;101625.16;5011118;28;20480;-91
2022/06/04 03:45:51;;;;;;;6.68;4.63;;;;;;;13.23;62.02;101620.78;5008692;28;20112;-92
2022/06/04 03:48:17;;;;;;;8.68;4.85;;;;;;;13.17;62.45;101619.25;5010481;28;20033;-91
2022/06/04 03:50:42;;;;;;;5.05;4.45;;;;;;;13.19;62.26;101624.50;5009520;28;20468;-92
2022/06/04 03:53:07;;;;;;;5.05;4.45;;;;;;;13.07;63.03;101620.63;5010505;28;20054;-91
2022/06/04 03:55:33;;;;;;;8.80;5.28;;;;;;;13.03;63.18;101632.41;5008824;28;20541;-92
2022/06/04 03:57:58;;;;;;;5.97;4.80;;;;;;;13.07;63.18;101631.31;5010945;28;20096;-93
2022/06/04 04:00:28;;;;;;;5.65;4.90;;;;;;;13.07;63.15;101625.97;5012166;28;20041;-91
2022/06/04 04:02:59;;;;;;;6.05;4.63;;;;;;;13.16;62.97;101638.00;5010494;28;20544;-90
2022/06/04 04:05:28;;;;;;;7.07;5.13;;;;;;;13.15;63.13;101644.31;5009236;28;20034;-91
2022/06/04 04:07:54;;;;;;;7.38;5.53;;;;;;;13.10;63.51;101633.84;5010523;28;20018;-92
2022/06/04 04:10:21;;;;;;;7.03;5.80;;;;;;;13.08;64.01;101650.88;5012482;28;20176;-93
2022/06/04 04:12:46;;;;;;;7.95;5.68;;;;;;;13.06;63.90;101647.44;5015016;28;20091;-92
2022/06/04 04:15:13;;;;;;;9.02;5.10;;;;;;;13.03;63.84;101636.88;5011381;28;20026;-92
2022/06/04 04:17:39;;;;;;;7.93;5.28;;;;;;;13.12;63.98;101652.47;5010504;28;20022;-92
2022/06/04 04:20:09;;;;;;;7.50;5.72;;;;;;;13.11;64.02;101662.28;5009880;28;20053;-91
2022/06/04 04:22:35;;;;;;;6.07;5.18;;;;;;;13.07;64.59;101651.81;5009861;28;20475;-92
2022/06/04 04:25:00;;;;;;;8.10;5.90;;;;;;;13.09;64.44;101652.63;4997382;28;20197;-92
2022/06/04 04:27:26;;;;;;;9.18;5.88;;;;;;;13.08;64.41;101653.56;4991713;28;20030;-91
2022/06/04 04:29:51;;;;;;;7.70;6.10;;;;;;;12.99;64.70;101645.97;4990222;28;20496;-93
2022/06/04 04:32:17;;;;;;;6.10;5.50;;;;;;;13.01;64.78;101660.16;4989014;28;20706;-90
2022/06/04 04:34:42;;;;;;;6.85;5.63;;;;;;;12.99;65.19;101664.69;5000766;28;20022;-91
2022/06/04 04:37:07;;;;;;;9.15;6.35;;;;;;;13.09;64.97;101684.72;5010335;28;20088;-92
2022/06/04 04:39:33;;;;;;;10.15;5.97;;;;;;;13.12;64.80;101681.88;5009965;28;20079;-93
2022/06/04 04:41:58;;;;;;;11.18;6.28;;;;;;;13.20;64.75;101671.66;5009973;28;20021;-91
2022/06/04 04:44:23;;;;;;;9.70;6.30;;;;;;;13.17;65.00;101682.53;5009119;28;20036;-91
2022/06/04 04:46:50;;;;;;;8.85;6.43;;;;;;;13.16;64.91;101684.31;5010119;28;20029;-91
2022/06/04 04:49:15;;;;;;;7.90;5.85;;;;;;;13.20;65.00;101693.06;5012059;28;20041;-90
2022/06/04 04:51:41;;;;;;;7.22;6.15;;;;;;;13.27;64.85;101701.69;5010146;28;20034;-91
2022/06/04 04:54:06;;;;;;;8.57;6.28;;;;;;;13.28;64.87;101703.41;5009380;28;20025;-92
2022/06/04 04:56:31;;;;;;;8.73;6.07;;;;;;;13.33;64.85;101696.91;5010582;28;20087;-92
2022/06/04 04:58:57;;;;;;;7.80;6.25;;;;;;;13.37;64.89;101697.63;5011549;28;20045;-91
2022/06/04 05:01:27;;;;;;;8.23;5.88;;;;;;;13.42;64.62;101693.78;5011695;28;20022;-91
2022/06/04 05:03:54;;;;;;;10.20;6.80;;;;;;;13.48;64.49;101689.94;5008787;28;20025;-92
2022/06/04 05:06:21;;;;;;;6.93;6.00;;;;;;;13.48;64.49;101689.94;5010472;28;20260;-91
2022/06/04 05:08:49;;;;;;;10.75;6.40;;;;;;;13.41;64.94;101699.19;4991885;28;20018;-92
2022/06/04 05:11:20;;;;;;;9.55;6.60;;;;;;;13.32;65.33;101696.97;4990239;28;20026;-91
2022/06/04 05:13:49;;;;;;;9.65;7.10;;;;;;;13.31;65.52;101701.47;4996063;28;20107;-91
2022/06/04 05:16:25;;;;;;;10.32;6.47;;;;;;;13.34;65.83;101701.31;5009217;28;20029;-92
2022/06/04 05:18:51;;;;;;;9.60;6.47;;;;;;;13.38;65.67;101700.22;5010717;28;20092;-93
2022/06/04 05:21:46;;;;;;;10.10;6.93;;;;;;;13.46;65.23;101699.88;5009192;28;20093;-92
2022/06/04 05:24:24;;;;;;;10.18;6.72;;;;;;;13.43;64.89;101706.22;5007612;28;20053;-91
2022/06/04 05:26:50;;;;;;;8.50;6.65;;;;;;;13.50;65.51;101708.56;5008458;28;20038;-91
2022/06/04 05:29:16;;;;;;;7.82;7.00;;;;;;;13.59;65.34;101709.00;5009314;28;20014;-91
2022/06/04 05:31:42;;;;;;;9.13;6.75;;;;;;;13.68;65.28;101703.19;5008261;28;20133;-91
2022/06/04 05:34:11;;;;;;;10.48;7.32;;;;;;;13.72;64.75;101711.94;5006518;28;20153;-91
2022/06/04 05:36:37;;;;;;;9.63;7.38;;;;;;;13.71;64.82;101712.88;5014104;28;20033;-91
2022/06/04 05:39:05;;;;;;;8.15;6.97;;;;;;;13.81;64.90;101715.94;5014213;28;20488;-92
2022/06/04 05:41:31;;;;;;;12.35;7.22;;;;;;;13.74;64.92;101720.72;5013494;28;20052;-91
2022/06/04 05:43:56;;;;;;;10.25;7.45;;;;;;;13.71;64.99;101718.22;5011758;28;20057;-92
2022/06/04 05:46:22;;;;;;;9.70;7.15;;;;;;;13.77;65.08;101731.28;5012393;28;20105;-91
2022/06/04 05:48:48;;;;;;;11.25;7.40;;;;;;;13.76;65.19;101731.38;5012886;28;20022;-92
2022/06/04 05:51:32;;;;;;;9.98;7.53;;;;;;;13.74;65.49;101723.41;5013118;28;20050;-93
2022/06/04 05:54:00;;;;;;;9.40;6.78;;;;;;;13.81;65.28;101722.16;5011103;28;20104;-92
2022/06/04 05:56:30;;;;;;;12.65;7.22;;;;;;;13.98;64.82;101729.34;5013078;28;20034;-91
2022/06/04 05:58:58;;;;;;;10.55;7.20;;;;;;;14.06;64.79;101732.50;5012623;28;20026;-92
2022/06/04 06:01:26;;;;;;;8.82;7.25;;;;;;;13.97;64.54;101721.41;5013289;28;20038;-92
2022/06/04 06:03:52;;;;;;;10.32;7.43;;;;;;;14.02;64.99;101722.03;5005912;28;20232;-91
2022/06/04 06:06:21;;;;;;;13.48;7.63;;;;;;;14.02;64.89;101722.88;4998661;28;20076;-93
2022/06/04 06:08:47;;;;;;;9.07;7.72;;;;;;;14.15;64.59;101725.78;4992740;28;20031;-90
2022/06/04 06:11:14;;;;;;;9.40;7.53;;;;;;;14.11;64.51;101719.72;4993529;28;20113;-92
2022/06/04 06:13:42;;;;;;;11.55;7.63;;;;;;;14.23;64.44;101723.59;5003086;28;20041;-90
2022/06/04 06:16:11;;;;;;;12.20;7.75;;;;;;;14.23;64.20;101718.22;5012511;28;20029;-90
2022/06/04 06:18:36;;;;;;;8.93;7.65;;;;;;;14.33;63.97;101729.31;5012079;28;20108;-93
2022/06/04 06:21:06;;;;;;;10.98;7.93;;;;;;;14.35;63.70;101727.44;5012836;28;20073;-92
2022/06/04 06:23:32;;;;;;;12.18;7.93;;;;;;;14.32;63.95;101732.94;5011614;28;20052;-91
2022/06/04 06:25:58;;;;;;;11.90;7.45;;;;;;;14.29;63.72;101731.28;5014334;28;20021;-92
2022/06/04 06:28:24;;;;;;;11.20;7.75;;;;;;;14.42;64.04;101735.06;5010465;28;20144;-93
2022/06/04 06:30:50;;;;;;;11.50;8.20;;;;;;;14.61;63.85;101742.16;5011326;28;20045;-92
2022/06/04 06:33:15;;;;;;;13.23;8.13;;;;;;;14.66;63.49;101734.72;5010257;28;20140;-91
2022/06/04 06:35:40;;;;;;;9.35;7.97;;;;;;;14.79;62.61;101748.34;5011330;28;20518;-92
2022/06/04 06:38:05;;;;;;;10.13;7.65;;;;;;;14.92;62.40;101744.03;5012402;28;20026;-92
2022/06/04 06:40:31;;;;;;;10.02;7.72;;;;;;;15.07;62.54;101742.34;5011883;28;20029;-92
2022/06/04 06:42:56;;;;;;;9.38;7.45;;;;;;;15.12;61.87;101748.28;5012685;28;20077;-92
2022/06/04 06:45:22;;;;;;;9.20;7.25;;;;;;;15.25;61.78;101730.56;5012740;28;20431;-92
2022/06/04 06:47:48;;;;;;;11.70;7.32;;;;;;;15.28;61.20;101734.91;5012370;28;20018;-92
2022/06/04 06:50:15;;;;;;;9.07;7.43;;;;;;;15.32;61.31;101744.50;5015088;28;20068;-93
2022/06/04 06:52:40;;;;;;;10.13;7.57;;;;;;;15.25;61.49;101752.03;5011471;28;20502;-92
2022/06/04 06:55:06;;;;;;;10.43;7.95;;;;;;;15.14;61.75;101755.31;5012886;28;20030;-92
2022/06/04 06:57:31;;;;;;;12.75;8.00;;;;;;;15.05;61.89;101755.84;5012476;28;20021;-92
2022/06/04 06:59:56;;;;;;;12.07;8.43;;;;;;;15.05;62.27;101755.84;5013210;28;20055;-92
2022/06/04 07:02:22;;;;;;;11.95;8.50;;;;;;;15.06;62.03;101752.19;5013235;28;20197;-91
2022/06/04 07:04:47;;;;;;;9.77;8.13;;;;;;;15.07;62.27;101759.28;5011978;28;20034;-91
2022/06/04 07:07:13;;;;;;;9.52;7.57;;;;;;;15.04;62.44;101759.44;5013253;28;20061;-92
2022/06/04 07:09:41;;;;;;;11.60;8.20;;;;;;;14.97;62.33;101757.22;5012364;28;20121;-92
2022/06/04 07:12:08;;;;;;;11.65;7.90;;;;;;;14.88;62.56;101753.19;5010557;28;20034;-90
2022/06/04 07:14:34;;;;;;;8.95;7.85;;;;;;;14.85;63.05;101748.88;5010952;28;20073;-92
2022/06/04 07:16:59;;;;;;;9.25;7.78;;;;;;;14.90;62.88;101752.16;5011241;28;20117;-93
2022/06/04 07:19:26;;;;;;;9.18;7.03;;;;;;;14.82;62.83;101745.50;5010942;28;20025;-93
2022/06/04 07:21:53;;;;;;;10.88;8.00;;;;;;;14.79;63.33;101754.56;5010916;28;20030;-91
2022/06/04 07:24:19;;;;;;;11.02;8.30;;;;;;;14.71;63.08;101759.47;5010173;28;20029;-92
2022/06/04 07:26:44;;;;;;;11.95;8.65;;;;;;;14.69;63.61;101759.56;5014811;28;20029;-92
2022/06/04 07:29:11;;;;;;;11.02;8.00;;;;;;;14.80;63.72;101759.00;5013882;28;20022;-91
2022/06/04 07:31:37;;;;;;;8.63;7.30;;;;;;;14.91;63.32;101764.59;5010202;28;20046;-92
2022/06/04 07:34:03;;;;;;;11.27;8.13;;;;;;;15.00;63.12;101762.38;5009275;28;20034;-91
2022/06/04 07:36:33;;;;;;;10.10;8.10;;;;;;;14.97;63.04;101763.44;5010332;28;20030;-91
2022/06/04 07:38:59;;;;;;;12.48;7.75;;;;;;;14.89;63.38;101766.53;5010692;28;20502;-92
2022/06/04 07:41:27;;;;;;;12.20;8.52;;;;;;;14.98;63.10;101772.34;5011267;28;20026;-93
2022/06/04 07:43:53;;;;;;;11.07;8.60;;;;;;;15.03;63.15;101775.63;5008805;28;20148;-92
2022/06/04 07:46:20;;;;;;;11.30;8.00;;;;;;;15.06;62.81;101784.38;5009240;28;20037;-92
2022/06/04 07:48:46;;;;;;;12.05;8.90;;;;;;;15.03;62.84;101783.66;5009869;28;20057;-93
2022/06/04 07:51:11;;;;;;;12.38;8.82;;;;;;;15.08;62.88;101779.78;5011076;28;20046;-91
2022/06/04 07:53:37;;;;;;;13.18;8.70;;;;;;;15.10;62.81;101779.72;5008615;28;20284;-92
2022/06/04 07:56:07;;;;;;;14.18;11.45;;;;;;;15.08;62.55;101765.50;5009913;28;20491;-91
2022/06/04 07:58:32;;;;;;;12.55;8.98;;;;;;;15.08;62.72;101760.16;5009408;28;20056;-92
2022/06/04 08:00:58;;;;;;;11.23;9.00;;;;;;;15.26;62.43;101761.81;5010356;28;20120;-92
2022/06/04 08:03:24;;;;;;;10.95;9.23;;;;;;;15.28;62.16;101765.28;5003546;28;20024;-91
2022/06/04 08:05:53;;;;;;;12.18;8.90;;;;;;;15.31;62.08;101765.09;5009754;28;20096;-91
2022/06/04 08:08:19;;;;;;;14.82;9.02;;;;;;;15.33;61.54;101757.81;5010404;28;20022;-93
2022/06/04 08:10:49;;;;;;;14.27;9.15;;;;;;;15.29;61.83;101758.09;5009579;28;20026;-93
2022/06/04 08:13:36;;;;;;;14.50;9.40;;;;;;;15.45;61.39;101764.31;5008803;28;20080;-93
2022/06/04 08:16:01;;;;;;;12.85;9.05;;;;;;;15.61;61.19;101765.19;5009867;28;20149;-90
2022/06/04 08:18:26;;;;;;;12.40;9.70;;;;;;;15.58;60.83;101765.34;5010818;28;20545;-92
2022/06/04 08:20:53;;;;;;;13.88;9.32;;;;;;;15.61;61.00;101764.31;5009752;28;20034;-91
2022/06/04 08:23:19;;;;;;;11.90;8.98;;;;;;;15.63;60.52;101763.28;5009478;28;20026;-91
2022/06/04 08:25:48;;;;;;;11.45;8.93;;;;;;;15.57;60.63;101755.56;5009380;28;20034;-91
2022/06/04 08:28:17;;;;;;;12.05;9.23;;;;;;;15.67;60.90;101761.31;5011300;28;20386;-92
2022/06/04 08:30:44;;;;;;;12.05;9.38;;;;;;;15.84;60.50;101754.94;5010660;28;20107;-91
2022/06/04 08:33:10;;;;;;;13.57;9.00;;;;;;;16.09;60.58;101759.75;5009975;28;20038;-92
2022/06/04 08:35:35;;;;;;;13.82;9.07;;;;;;;16.17;59.10;101765.53;5010055;28;20061;-91
2022/06/04 08:38:01;;;;;;;10.48;9.10;;;;;;;16.24;59.41;101768.72;5009819;28;20037;-91
2022/06/04 08:40:39;;;;;;;12.95;9.23;;;;;;;16.41;59.11;101772.13;5009583;28;20029;-91
2022/06/04 08:43:08;;;;;;;13.55;8.88;;;;;;;16.56;58.26;101767.63;5008570;28;20299;-91
2022/06/04 08:45:37;;;;;;;11.48;8.45;;;;;;;16.76;57.74;101765.56;5009543;28;20068;-90
2022/06/04 08:48:02;;;;;;;10.23;8.18;;;;;;;16.77;57.61;101764.63;5010044;28;20234;-93
2022/06/04 08:50:34;;;;;;;9.65;8.10;;;;;;;16.91;57.66;101760.09;5009659;28;20080;-93
2022/06/04 08:53:01;;;;;;;11.18;9.48;;;;;;;16.96;57.45;101761.63;5008063;28;20046;-92
2022/06/04 08:59:06;;;;;;;13.43;8.80;;;;;;;17.50;56.51;101770.66;5009829;28;20598;-91
2022/06/04 09:01:37;;;;;;;10.95;8.63;;;;;;;17.75;55.79;101778.03;5008318;28;20037;-91
2022/06/04 09:04:14;;;;;;;12.48;8.82;;;;;;;17.73;54.54;101779.94;4990818;28;20042;-91
2022/06/04 09:06:53;;;;;;;12.38;9.02;;;;;;;17.77;55.00;101769.88;4990284;28;20205;-90
2022/06/04 09:09:30;;;;;;;12.80;9.88;;;;;;;17.87;54.64;101771.84;4992176;28;20022;-91
2022/06/04 09:12:02;;;;;;;14.63;9.55;;;;;;;18.58;53.92;101772.41;4999756;28;20112;-93
2022/06/04 09:15:03;;;;;;;11.48;9.00;;;;;;;20.79;49.06;101773.97;5013517;28;20030;-91
2022/06/04 09:17:47;;;;;;;14.23;10.85;;;;;;;20.88;47.44;101765.13;5012850;28;20033;-93
2022/06/04 09:20:36;;;;;;;11.10;8.57;;;;;;;21.37;47.44;101776.56;5011036;28;20147;-92
2022/06/04 09:23:06;;;;;;;10.80;8.75;;;;;;;23.13;43.32;101769.69;5008047;28;20046;-93
2022/06/04 09:25:45;;;;;;;11.45;9.27;;;;;;;24.05;41.03;101774.88;5009503;28;20042;-92
2022/06/04 09:28:13;;;;;;;10.32;8.38;;;;;;;25.00;38.08;101771.28;5011167;28;20061;-93
2022/06/04 09:30:53;;;;;;;20.15;9.27;;;;;;;25.99;37.33;101775.03;5011956;28;20049;-92
2022/06/04 09:33:49;;;;;;;14.27;8.65;;;;;;;27.00;36.22;101775.44;5011040;28;20091;-94
2022/06/04 09:36:18;;;;;;;10.57;8.13;;;;;;;26.62;33.78;101779.47;5014152;28;20033;-93
2022/06/04 09:38:56;;;;;;;9.18;8.13;;;;;;;26.48;35.29;101780.94;5010851;28;20030;-93
2022/06/04 09:41:25;;;;;;;9.63;8.20;;;;;;;26.51;34.46;101777.03;5011434;28;20065;-93
2022/06/04 09:44:14;;;;;;;10.75;8.98;;;;;;;26.73;34.62;101792.88;5010396;28;20034;-90
2022/06/04 09:46:45;;;;;;;10.82;9.73;;;;;;;26.87;33.85;101783.22;5009521;28;20033;-94
2022/06/04 09:49:49;;;;;;;10.57;9.13;;;;;;;27.85;32.43;101782.81;5012038;28;20501;-94
2022/06/04 09:52:29;;;;;;;10.75;8.82;;;;;;;27.83;32.71;101784.84;5010807;28;20094;-91
2022/06/04 09:55:03;;;;;;;10.20;8.30;;;;;;;28.54;30.54;101781.47;5011044;28;20499;-94
2022/06/04 09:57:32;;;;;;;9.35;8.07;;;;;;;29.47;30.32;101776.25;5010118;28;20513;-94
2022/06/04 09:59:59;;;;;;;10.23;8.68;;;;;;;29.87;29.38;101792.66;4995905;28;20042;-95
2022/06/04 10:02:25;;;;;;;10.77;9.38;;;;;;;29.33;29.42;101798.91;5004331;28;20060;-95
2022/06/04 10:05:03;;;;;;;10.73;8.68;;;;;;;29.10;30.61;101789.78;5008089;28;20459;-94
2022/06/04 10:07:37;;;;;;;12.20;8.68;;;;;;;28.12;31.09;101789.84;5008509;28;20033;-92
2022/06/04 10:10:21;;;;;;;10.05;8.95;;;;;;;26.95;33.90;101793.34;5008559;28;20372;-92
2022/06/04 10:15:40;;;;;;;11.68;9.15;;;;;;;28.59;31.73;101790.00;5008643;28;20056;-92
2022/06/04 10:18:30;;;;;;;10.88;9.43;;;;;;;31.14;28.19;101794.59;5008114;28;20034;-94
2022/06/04 10:21:00;;;;;;;10.23;9.05;;;;;;;30.79;27.97;101792.59;5006503;28;20072;-91
2022/06/04 10:23:29;;;;;;;8.98;8.07;;;;;;;31.49;27.15;101784.72;5011714;28;20224;-90
2022/06/04 10:26:12;;;;;;;10.25;9.25;;;;;;;31.06;27.30;101777.34;5011780;28;20534;-91
2022/06/04 10:28:37;;;;;;;;;;;;;;;30.45;29.15;101794.78;5012108;28;20437;-94
2022/06/04 10:31:20;;;;;;;12.07;8.93;;;;;;;28.00;31.54;101798.38;5010939;28;19929;-91
2022/06/04 10:34:20;;;;;;;10.18;9.15;;;;;;;27.83;32.40;101784.84;5011588;28;20273;-90
2022/06/04 10:36:58;;;;;;;10.38;9.38;;;;;;;27.48;32.67;101782.16;5011308;28;20076;-91
2022/06/04 10:39:41;;;;;;;13.88;9.13;;;;;;;27.57;32.69;101794.00;5010899;28;20033;-92
2022/06/04 10:42:47;;;;;;;13.70;9.70;;;;;;;28.40;32.29;101785.78;5012090;28;20041;-93
2022/06/04 10:45:32;;;;;;;11.25;8.68;;;;;;;30.03;29.83;101793.41;5012144;28;20025;-91
2022/06/04 10:48:22;;;;;;;16.52;9.27;;;;;;;30.51;29.46;101790.44;5012673;28;20033;-92
2022/06/04 10:54:17;;;;;;;10.15;9.13;;;;;;;31.46;27.85;101793.34;5011641;28;20113;-91
2022/06/04 10:56:59;;;;;;;11.23;9.75;;;;;;;30.20;28.95;101799.66;5008509;28;20329;-91
2022/06/04 10:59:32;;;;;;;10.52;9.48;;;;;;;28.95;29.93;101803.31;4992142;28;20094;-91
2022/06/04 11:02:06;;;;;;;24.23;10.75;;;;;;;28.75;31.27;101795.47;5005987;28;20113;-92
2022/06/04 11:04:41;;;;;;;15.07;10.00;;;;;;;28.33;31.08;101803.03;5010924;28;20052;-93
2022/06/04 11:07:32;;;;;;;10.98;9.90;;;;;;;28.21;32.07;101797.88;5010813;28;20110;-92
2022/06/04 11:09:58;;;;;;;16.25;10.93;;;;;;;28.33;31.11;101801.13;5010184;28;20040;-90
2022/06/04 11:12:30;;;;;;;15.73;10.48;;;;;;;28.19;31.79;101799.09;5010462;28;20029;-93
2022/06/04 11:15:03;;;;;;;13.35;10.30;;;;;;;27.78;32.22;101804.50;5011682;28;20038;-94
2022/06/04 11:17:43;;;;;;;11.88;10.65;;;;;;;27.43;32.18;101795.50;5011917;28;20045;-93
2022/06/04 11:20:20;;;;;;;12.40;10.35;;;;;;;28.06;32.64;101799.59;5010196;28;20034;-93
2022/06/04 11:23:17;;;;;;;13.48;9.65;;;;;;;29.22;31.48;101802.94;4991752;28;20116;-91
2022/06/04 11:25:48;;;;;;;11.88;9.68;;;;;;;29.43;30.31;101809.66;4988265;28;20045;-91
2022/06/04 11:28:23;;;;;;;12.68;9.70;;;;;;;28.68;31.12;101807.31;4993182;28;20379;-91
2022/06/04 11:31:06;;;;;;;10.57;9.48;;;;;;;27.63;32.34;101809.75;4999223;28;20041;-92
2022/06/04 11:33:37;;;;;;;;;;;;;;;27.41;32.60;101811.19;5012308;28;20026;-91
2022/06/04 11:36:14;;;;;;;10.93;9.82;;;;;;;26.31;35.33;101815.41;5011172;28;19913;-92
2022/06/04 11:38:46;;;;;;;12.48;10.50;;;;;;;26.13;35.66;101810.97;5010089;28;20392;-93
2022/06/04 11:41:23;;;;;;;11.73;10.15;;;;;;;27.06;34.50;101804.84;5008309;28;20117;-92
2022/06/04 11:44:38;;;;;;;11.90;10.70;;;;;;;29.72;31.32;101798.94;5010239;28;20306;-93
2022/06/04 11:47:39;;;;;;;11.15;10.00;;;;;;;33.01;27.14;101780.84;4953569;28;20078;-92
2022/06/04 11:50:09;;;;;;;11.38;10.18;;;;;;;34.10;24.46;101778.06;4951023;28;20129;-92
2022/06/04 11:52:52;;;;;;;10.55;9.18;;;;;;;34.96;24.30;101768.88;4949669;29;20039;-94
2022/06/04 11:55:24;;;;;;;;;;;;;;;36.10;24.16;101768.13;4950366;29;20470;-94
2022/06/04 11:58:04;;;;;;;9.50;8.52;;;;;;;35.82;22.80;101774.91;4967781;28;19914;-93
2022/06/04 12:00:33;;;;;;;11.57;10.32;;;;;;;36.00;21.72;101770.56;4962623;28;20042;-94